sensor_id;sensor_type;location;lat;lon;timestamp;temperature;humidity
2657;DHT22;1338;48.176;11.792;2023-02-04T00:00:33;4.40;99.90
2657;DHT22;1338;48.176;11.792;2023-02-04T00:03:04;4.30;99.90
2657;DHT22;1338;48.176;11.792;2023-02-04T00:05:32;4.30;99.90
2657;DHT22;1338;48.176;11.792;2023-02-04T00:08:02;4.20;99.90
2657;DHT22;1338;48.176;11.792;2023-02-04T00:10:31;4.20;1.00
2657;DHT22;1338;48.176;11.792;2023-02-04T00:12:59;4.20;1.00
2657;DHT22;1338;48.176;11.792;2023-02-04T00:15:28;4.40;99.90
2657;DHT22;1338;48.176;11.792;2023-02-04T00:17:56;4.20;1.00
2657;DHT22;1338;48.176;11.792;2023-02-04T00:20:24;4.30;1.00
2657;DHT22;1338;48.176;11.792;2023-02-04T00:22:53;4.20;1.00
2657;DHT22;1338;48.176;11.792;2023-02-04T00:25:23;4.20;1.00
2657;DHT22;1338;48.176;11.792;2023-02-04T00:27:51;4.30;1.00
2657;DHT22;1338;48.176;11.792;2023-02-04T00:30:20;4.30;1.00
2657;DHT22;1338;48.176;11.792;2023-02-04T00:32:48;4.30;1.00
2657;DHT22;1338;48.176;11.792;2023-02-04T00:35:20;4.30;1.00
2657;DHT22;1338;48.176;11.792;2023-02-04T00:37:49;4.40;99.90
2657;DHT22;1338;48.176;11.792;2023-02-04T00:40:18;4.40;99.90
2657;DHT22;1338;48.176;11.792;2023-02-04T00:42:48;4.40;99.90
2657;DHT22;1338;48.176;11.792;2023-02-04T00:45:16;4.50;99.90
2657;DHT22;1338;48.176;11.792;2023-02-04T00:47:44;4.50;99.90
2657;DHT22;1338;48.176;11.792;2023-02-04T00:50:12;4.40;99.90
2657;DHT22;1338;48.176;11.792;2023-02-04T00:52:40;4.40;99.90
2657;DHT22;1338;48.176;11.792;2023-02-04T00:55:08;4.50;99.90
2657;DHT22;1338;48.176;11.792;2023-02-04T00:57:38;4.40;99.90
2657;DHT22;1338;48.176;11.792;2023-02-04T01:00:09;4.40;99.90
2657;DHT22;1338;48.176;11.792;2023-02-04T01:02:38;4.40;99.90
2657;DHT22;1338;48.176;11.792;2023-02-04T01:05:07;4.40;99.90
2657;DHT22;1338;48.176;11.792;2023-02-04T01:07:36;4.40;99.90
2657;DHT22;1338;48.176;11.792;2023-02-04T01:10:05;4.40;1.00
2657;DHT22;1338;48.176;11.792;2023-02-04T01:12:33;4.40;1.00
2657;DHT22;1338;48.176;11.792;2023-02-04T01:15:03;4.40;1.00
2657;DHT22;1338;48.176;11.792;2023-02-04T01:17:33;4.40;1.00
2657;DHT22;1338;48.176;11.792;2023-02-04T01:20:01;4.50;99.90
2657;DHT22;1338;48.176;11.792;2023-02-04T01:22:29;4.50;99.90
2657;DHT22;1338;48.176;11.792;2023-02-04T01:24:57;4.50;99.90
2657;DHT22;1338;48.176;11.792;2023-02-04T01:27:39;4.50;99.90
2657;DHT22;1338;48.176;11.792;2023-02-04T01:30:09;4.50;99.90
2657;DHT22;1338;48.176;11.792;2023-02-04T01:32:38;4.40;99.90
2657;DHT22;1338;48.176;11.792;2023-02-04T01:35:07;4.40;99.90
2657;DHT22;1338;48.176;11.792;2023-02-04T01:37:35;4.40;99.90
2657;DHT22;1338;48.176;11.792;2023-02-04T01:40:04;4.40;99.90
2657;DHT22;1338;48.176;11.792;2023-02-04T01:42:34;4.40;99.90
2657;DHT22;1338;48.176;11.792;2023-02-04T01:45:04;4.40;99.90
2657;DHT22;1338;48.176;11.792;2023-02-04T01:47:33;4.50;99.90
2657;DHT22;1338;48.176;11.792;2023-02-04T01:50:08;4.40;99.90
2657;DHT22;1338;48.176;11.792;2023-02-04T01:52:38;4.40;99.90
2657;DHT22;1338;48.176;11.792;2023-02-04T01:55:12;4.50;99.90
2657;DHT22;1338;48.176;11.792;2023-02-04T01:57:41;4.40;99.90
2657;DHT22;1338;48.176;11.792;2023-02-04T02:00:15;4.40;99.90
2657;DHT22;1338;48.176;11.792;2023-02-04T02:02:48;4.50;99.90
2657;DHT22;1338;48.176;11.792;2023-02-04T02:05:21;4.60;99.90
2657;DHT22;1338;48.176;11.792;2023-02-04T02:07:52;4.60;99.90
2657;DHT22;1338;48.176;11.792;2023-02-04T02:10:21;4.60;99.90
2657;DHT22;1338;48.176;11.792;2023-02-04T02:12:50;4.60;99.90
2657;DHT22;1338;48.176;11.792;2023-02-04T02:15:21;4.50;99.90
2657;DHT22;1338;48.176;11.792;2023-02-04T02:17:49;4.80;1.00
2657;DHT22;1338;48.176;11.792;2023-02-04T02:20:21;4.70;1.00
2657;DHT22;1338;48.176;11.792;2023-02-04T02:22:57;4.70;1.00
2657;DHT22;1338;48.176;11.792;2023-02-04T02:25:28;4.70;1.00
2657;DHT22;1338;48.176;11.792;2023-02-04T02:27:57;4.70;1.00
2657;DHT22;1338;48.176;11.792;2023-02-04T02:30:27;4.70;1.00
2657;DHT22;1338;48.176;11.792;2023-02-04T02:32:57;4.60;1.00
2657;DHT22;1338;48.176;11.792;2023-02-04T02:35:26;4.70;1.00
2657;DHT22;1338;48.176;11.792;2023-02-04T02:37:56;4.70;1.00
2657;DHT22;1338;48.176;11.792;2023-02-04T02:40:24;4.60;1.00
2657;DHT22;1338;48.176;11.792;2023-02-04T02:42:54;4.50;1.00
2657;DHT22;1338;48.176;11.792;2023-02-04T02:45:25;4.30;1.00
2657;DHT22;1338;48.176;11.792;2023-02-04T02:47:55;4.50;1.00
2657;DHT22;1338;48.176;11.792;2023-02-04T02:50:27;4.50;1.00
2657;DHT22;1338;48.176;11.792;2023-02-04T02:52:59;4.20;1.00
2657;DHT22;1338;48.176;11.792;2023-02-04T02:55:27;4.30;1.00
2657;DHT22;1338;48.176;11.792;2023-02-04T02:57:58;4.20;1.00
2657;DHT22;1338;48.176;11.792;2023-02-04T03:00:27;4.30;1.00
2657;DHT22;1338;48.176;11.792;2023-02-04T03:03:00;4.40;1.00
2657;DHT22;1338;48.176;11.792;2023-02-04T03:05:34;4.30;1.00
2657;DHT22;1338;48.176;11.792;2023-02-04T03:08:04;4.30;1.00
2657;DHT22;1338;48.176;11.792;2023-02-04T03:10:34;4.20;1.00
2657;DHT22;1338;48.176;11.792;2023-02-04T03:13:03;3.90;1.00
2657;DHT22;1338;48.176;11.792;2023-02-04T03:15:32;3.70;1.00
2657;DHT22;1338;48.176;11.792;2023-02-04T03:18:01;3.80;1.00
2657;DHT22;1338;48.176;11.792;2023-02-04T03:20:30;3.50;1.00
2657;DHT22;1338;48.176;11.792;2023-02-04T03:22:59;3.40;1.00
2657;DHT22;1338;48.176;11.792;2023-02-04T03:25:28;3.20;1.00
2657;DHT22;1338;48.176;11.792;2023-02-04T03:27:57;3.10;1.00
2657;DHT22;1338;48.176;11.792;2023-02-04T03:30:27;3.10;1.00
2657;DHT22;1338;48.176;11.792;2023-02-04T03:32:56;2.90;1.00
2657;DHT22;1338;48.176;11.792;2023-02-04T03:35:25;2.70;3.70
2657;DHT22;1338;48.176;11.792;2023-02-04T03:37:53;2.70;18.80
2657;DHT22;1338;48.176;11.792;2023-02-04T03:40:21;2.70;1.00
2657;DHT22;1338;48.176;11.792;2023-02-04T03:42:49;2.70;1.00
2657;DHT22;1338;48.176;11.792;2023-02-04T03:45:17;2.70;1.00
2657;DHT22;1338;48.176;11.792;2023-02-04T03:47:47;2.80;1.00
2657;DHT22;1338;48.176;11.792;2023-02-04T03:50:15;3.00;1.00
2657;DHT22;1338;48.176;11.792;2023-02-04T03:52:43;3.10;1.00
2657;DHT22;1338;48.176;11.792;2023-02-04T03:55:12;3.10;1.00
2657;DHT22;1338;48.176;11.792;2023-02-04T03:57:40;3.20;1.00
2657;DHT22;1338;48.176;11.792;2023-02-04T04:00:09;3.30;1.00
2657;DHT22;1338;48.176;11.792;2023-02-04T04:02:38;3.30;1.00
2657;DHT22;1338;48.176;11.792;2023-02-04T04:05:08;3.40;1.00
2657;DHT22;1338;48.176;11.792;2023-02-04T04:07:37;3.40;1.00
2657;DHT22;1338;48.176;11.792;2023-02-04T04:10:06;3.40;1.00
2657;DHT22;1338;48.176;11.792;2023-02-04T04:12:34;3.50;1.00
2657;DHT22;1338;48.176;11.792;2023-02-04T04:15:02;3.60;1.00
2657;DHT22;1338;48.176;11.792;2023-02-04T04:17:31;3.60;1.00
2657;DHT22;1338;48.176;11.792;2023-02-04T04:19:59;3.70;1.00
2657;DHT22;1338;48.176;11.792;2023-02-04T04:22:29;3.70;1.00
2657;DHT22;1338;48.176;11.792;2023-02-04T04:24:57;3.80;1.00
2657;DHT22;1338;48.176;11.792;2023-02-04T04:27:25;3.70;1.00
2657;DHT22;1338;48.176;11.792;2023-02-04T04:29:54;3.80;1.00
2657;DHT22;1338;48.176;11.792;2023-02-04T04:32:23;3.80;1.00
2657;DHT22;1338;48.176;11.792;2023-02-04T04:34:51;3.80;1.00
2657;DHT22;1338;48.176;11.792;2023-02-04T04:37:19;3.70;1.00
2657;DHT22;1338;48.176;11.792;2023-02-04T04:39:48;3.70;1.00
2657;DHT22;1338;48.176;11.792;2023-02-04T04:42:17;3.80;1.00
2657;DHT22;1338;48.176;11.792;2023-02-04T04:44:45;3.80;1.00
2657;DHT22;1338;48.176;11.792;2023-02-04T04:47:13;3.70;1.00
2657;DHT22;1338;48.176;11.792;2023-02-04T04:49:41;3.50;1.00
2657;DHT22;1338;48.176;11.792;2023-02-04T04:52:09;3.50;1.00
2657;DHT22;1338;48.176;11.792;2023-02-04T04:54:38;3.50;1.00
2657;DHT22;1338;48.176;11.792;2023-02-04T04:57:07;3.40;1.00
2657;DHT22;1338;48.176;11.792;2023-02-04T04:59:35;3.30;1.00
2657;DHT22;1338;48.176;11.792;2023-02-04T05:02:03;3.30;1.00
2657;DHT22;1338;48.176;11.792;2023-02-04T05:04:33;3.30;1.00
2657;DHT22;1338;48.176;11.792;2023-02-04T05:07:01;3.40;1.00
2657;DHT22;1338;48.176;11.792;2023-02-04T05:09:29;3.40;1.00
2657;DHT22;1338;48.176;11.792;2023-02-04T05:11:57;3.50;1.00
2657;DHT22;1338;48.176;11.792;2023-02-04T05:14:27;3.50;1.00
2657;DHT22;1338;48.176;11.792;2023-02-04T05:16:55;3.50;1.00
2657;DHT22;1338;48.176;11.792;2023-02-04T05:19:23;3.50;1.00
2657;DHT22;1338;48.176;11.792;2023-02-04T05:21:51;3.70;1.00
2657;DHT22;1338;48.176;11.792;2023-02-04T05:24:19;3.70;1.00
2657;DHT22;1338;48.176;11.792;2023-02-04T05:26:48;3.60;1.00
2657;DHT22;1338;48.176;11.792;2023-02-04T05:29:16;3.60;1.00
2657;DHT22;1338;48.176;11.792;2023-02-04T05:31:45;3.50;1.00
2657;DHT22;1338;48.176;11.792;2023-02-04T05:34:14;3.50;1.00
2657;DHT22;1338;48.176;11.792;2023-02-04T05:36:42;3.60;1.00
2657;DHT22;1338;48.176;11.792;2023-02-04T05:39:10;3.50;1.00
2657;DHT22;1338;48.176;11.792;2023-02-04T05:41:38;3.50;1.00
2657;DHT22;1338;48.176;11.792;2023-02-04T05:44:06;3.50;1.00
2657;DHT22;1338;48.176;11.792;2023-02-04T05:46:35;3.50;1.00
2657;DHT22;1338;48.176;11.792;2023-02-04T05:49:06;3.40;1.00
2657;DHT22;1338;48.176;11.792;2023-02-04T05:51:34;3.50;1.00
2657;DHT22;1338;48.176;11.792;2023-02-04T05:54:02;3.40;1.00
2657;DHT22;1338;48.176;11.792;2023-02-04T05:56:31;3.40;1.00
2657;DHT22;1338;48.176;11.792;2023-02-04T05:58:59;3.40;1.00
2657;DHT22;1338;48.176;11.792;2023-02-04T06:01:27;3.40;1.00
2657;DHT22;1338;48.176;11.792;2023-02-04T06:03:55;3.40;1.00
2657;DHT22;1338;48.176;11.792;2023-02-04T06:06:25;3.40;1.00
2657;DHT22;1338;48.176;11.792;2023-02-04T06:08:53;3.30;1.00
2657;DHT22;1338;48.176;11.792;2023-02-04T06:11:22;3.40;1.00
2657;DHT22;1338;48.176;11.792;2023-02-04T06:13:50;3.40;1.00
2657;DHT22;1338;48.176;11.792;2023-02-04T06:16:18;3.40;1.00
2657;DHT22;1338;48.176;11.792;2023-02-04T06:18:46;3.40;1.00
2657;DHT22;1338;48.176;11.792;2023-02-04T06:21:14;3.40;1.00
2657;DHT22;1338;48.176;11.792;2023-02-04T06:23:44;3.40;1.00
2657;DHT22;1338;48.176;11.792;2023-02-04T06:26:12;3.40;1.00
2657;DHT22;1338;48.176;11.792;2023-02-04T06:28:41;3.40;1.00
2657;DHT22;1338;48.176;11.792;2023-02-04T06:31:09;3.50;1.00
2657;DHT22;1338;48.176;11.792;2023-02-04T06:33:37;3.50;1.00
2657;DHT22;1338;48.176;11.792;2023-02-04T06:36:06;3.50;1.00
2657;DHT22;1338;48.176;11.792;2023-02-04T06:38:34;3.50;1.00
2657;DHT22;1338;48.176;11.792;2023-02-04T06:41:04;3.40;1.00
2657;DHT22;1338;48.176;11.792;2023-02-04T06:43:32;3.40;1.00
2657;DHT22;1338;48.176;11.792;2023-02-04T06:46:00;3.40;1.00
2657;DHT22;1338;48.176;11.792;2023-02-04T06:48:29;3.40;1.00
2657;DHT22;1338;48.176;11.792;2023-02-04T06:50:57;3.40;1.00
2657;DHT22;1338;48.176;11.792;2023-02-04T06:53:25;3.40;1.00
2657;DHT22;1338;48.176;11.792;2023-02-04T06:55:53;3.40;1.00
2657;DHT22;1338;48.176;11.792;2023-02-04T06:58:23;3.50;1.00
2657;DHT22;1338;48.176;11.792;2023-02-04T07:00:51;3.60;1.00
2657;DHT22;1338;48.176;11.792;2023-02-04T07:03:19;3.60;1.00
2657;DHT22;1338;48.176;11.792;2023-02-04T07:05:47;3.50;1.00
2657;DHT22;1338;48.176;11.792;2023-02-04T07:08:17;3.50;1.00
2657;DHT22;1338;48.176;11.792;2023-02-04T07:10:45;3.50;1.00
2657;DHT22;1338;48.176;11.792;2023-02-04T07:13:13;3.60;1.00
2657;DHT22;1338;48.176;11.792;2023-02-04T07:15:42;3.60;1.00
2657;DHT22;1338;48.176;11.792;2023-02-04T07:18:11;3.50;1.00
2657;DHT22;1338;48.176;11.792;2023-02-04T07:20:39;3.50;1.00
2657;DHT22;1338;48.176;11.792;2023-02-04T07:23:07;3.60;1.00
2657;DHT22;1338;48.176;11.792;2023-02-04T07:25:35;3.60;1.00
2657;DHT22;1338;48.176;11.792;2023-02-04T07:28:05;3.60;1.00
2657;DHT22;1338;48.176;11.792;2023-02-04T07:30:33;3.70;1.00
2657;DHT22;1338;48.176;11.792;2023-02-04T07:33:03;3.60;1.00
2657;DHT22;1338;48.176;11.792;2023-02-04T07:35:31;3.60;1.00
2657;DHT22;1338;48.176;11.792;2023-02-04T07:37:59;3.60;1.00
2657;DHT22;1338;48.176;11.792;2023-02-04T07:40:27;3.60;1.00
2657;DHT22;1338;48.176;11.792;2023-02-04T07:42:56;3.60;1.00
2657;DHT22;1338;48.176;11.792;2023-02-04T07:45:27;3.70;1.00
2657;DHT22;1338;48.176;11.792;2023-02-04T07:47:55;3.70;1.00
2657;DHT22;1338;48.176;11.792;2023-02-04T07:50:25;3.70;1.00
2657;DHT22;1338;48.176;11.792;2023-02-04T07:52:53;3.70;1.00
2657;DHT22;1338;48.176;11.792;2023-02-04T07:55:21;3.70;1.00
2657;DHT22;1338;48.176;11.792;2023-02-04T07:57:49;3.70;1.00
2657;DHT22;1338;48.176;11.792;2023-02-04T08:00:18;3.70;1.00
2657;DHT22;1338;48.176;11.792;2023-02-04T08:02:46;3.70;1.00
2657;DHT22;1338;48.176;11.792;2023-02-04T08:05:15;3.70;1.00
2657;DHT22;1338;48.176;11.792;2023-02-04T08:07:45;3.70;1.00
2657;DHT22;1338;48.176;11.792;2023-02-04T08:10:13;3.60;1.00
2657;DHT22;1338;48.176;11.792;2023-02-04T08:12:41;3.70;1.00
2657;DHT22;1338;48.176;11.792;2023-02-04T08:15:09;3.70;1.00
2657;DHT22;1338;48.176;11.792;2023-02-04T08:17:37;3.70;1.00
2657;DHT22;1338;48.176;11.792;2023-02-04T08:20:06;3.80;1.00
2657;DHT22;1338;48.176;11.792;2023-02-04T08:22:35;3.70;1.00
2657;DHT22;1338;48.176;11.792;2023-02-04T08:25:05;3.70;1.00
2657;DHT22;1338;48.176;11.792;2023-02-04T08:27:33;3.60;1.00
2657;DHT22;1338;48.176;11.792;2023-02-04T08:30:02;3.60;1.00
2657;DHT22;1338;48.176;11.792;2023-02-04T08:32:31;3.50;1.00
2657;DHT22;1338;48.176;11.792;2023-02-04T08:34:59;3.60;1.00
2657;DHT22;1338;48.176;11.792;2023-02-04T08:37:28;3.60;1.00
2657;DHT22;1338;48.176;11.792;2023-02-04T08:39:56;3.60;1.00
2657;DHT22;1338;48.176;11.792;2023-02-04T08:42:25;3.60;1.00
2657;DHT22;1338;48.176;11.792;2023-02-04T08:44:54;3.60;1.00
2657;DHT22;1338;48.176;11.792;2023-02-04T08:47:22;3.60;1.00
2657;DHT22;1338;48.176;11.792;2023-02-04T08:49:50;3.70;1.00
2657;DHT22;1338;48.176;11.792;2023-02-04T08:52:18;3.70;1.00
2657;DHT22;1338;48.176;11.792;2023-02-04T08:54:46;3.70;1.00
2657;DHT22;1338;48.176;11.792;2023-02-04T08:57:14;3.70;1.00
2657;DHT22;1338;48.176;11.792;2023-02-04T08:59:44;3.70;1.00
2657;DHT22;1338;48.176;11.792;2023-02-04T09:02:12;3.80;1.00
2657;DHT22;1338;48.176;11.792;2023-02-04T09:04:40;3.80;1.00
2657;DHT22;1338;48.176;11.792;2023-02-04T09:07:09;4.00;1.00
2657;DHT22;1338;48.176;11.792;2023-02-04T09:09:37;4.10;1.00
2657;DHT22;1338;48.176;11.792;2023-02-04T09:12:05;4.10;1.00
2657;DHT22;1338;48.176;11.792;2023-02-04T09:14:33;4.40;1.00
2657;DHT22;1338;48.176;11.792;2023-02-04T09:17:03;4.50;1.00
2657;DHT22;1338;48.176;11.792;2023-02-04T09:19:32;4.50;1.00
2657;DHT22;1338;48.176;11.792;2023-02-04T09:22:00;4.40;1.00
2657;DHT22;1338;48.176;11.792;2023-02-04T09:24:28;4.40;99.90
2657;DHT22;1338;48.176;11.792;2023-02-04T09:26:56;4.50;99.90
2657;DHT22;1338;48.176;11.792;2023-02-04T09:29:24;4.30;99.90
2657;DHT22;1338;48.176;11.792;2023-02-04T09:31:52;4.40;99.90
2657;DHT22;1338;48.176;11.792;2023-02-04T09:34:22;4.30;99.90
2657;DHT22;1338;48.176;11.792;2023-02-04T09:36:51;4.20;99.90
2657;DHT22;1338;48.176;11.792;2023-02-04T09:39:19;4.30;1.00
2657;DHT22;1338;48.176;11.792;2023-02-04T09:41:47;4.10;1.00
2657;DHT22;1338;48.176;11.792;2023-02-04T09:44:17;3.90;1.00
2657;DHT22;1338;48.176;11.792;2023-02-04T09:46:50;3.90;1.00
2657;DHT22;1338;48.176;11.792;2023-02-04T09:49:19;3.20;1.00
2657;DHT22;1338;48.176;11.792;2023-02-04T09:51:49;3.90;1.00
2657;DHT22;1338;48.176;11.792;2023-02-04T09:54:19;3.80;1.00
2657;DHT22;1338;48.176;11.792;2023-02-04T09:56:48;3.80;1.00
2657;DHT22;1338;48.176;11.792;2023-02-04T09:59:18;3.60;1.00
2657;DHT22;1338;48.176;11.792;2023-02-04T10:01:50;3.70;1.00
2657;DHT22;1338;48.176;11.792;2023-02-04T10:04:21;3.00;1.00
2657;DHT22;1338;48.176;11.792;2023-02-04T10:06:52;3.70;1.00
2657;DHT22;1338;48.176;11.792;2023-02-04T10:09:20;3.70;1.00
2657;DHT22;1338;48.176;11.792;2023-02-04T10:11:48;3.70;1.00
2657;DHT22;1338;48.176;11.792;2023-02-04T10:14:19;3.50;1.00
2657;DHT22;1338;48.176;11.792;2023-02-04T10:16:52;3.70;1.00
2657;DHT22;1338;48.176;11.792;2023-02-04T10:19:25;3.70;1.00
2657;DHT22;1338;48.176;11.792;2023-02-04T10:21:55;3.50;1.00
2657;DHT22;1338;48.176;11.792;2023-02-04T10:24:25;3.80;1.00
2657;DHT22;1338;48.176;11.792;2023-02-04T10:26:54;3.60;1.00
2657;DHT22;1338;48.176;11.792;2023-02-04T10:29:33;3.60;1.00
2657;DHT22;1338;48.176;11.792;2023-02-04T10:32:01;3.30;1.00
2657;DHT22;1338;48.176;11.792;2023-02-04T10:34:33;3.30;1.00
2657;DHT22;1338;48.176;11.792;2023-02-04T10:37:18;3.20;1.00
2657;DHT22;1338;48.176;11.792;2023-02-04T10:39:47;2.90;1.00
2657;DHT22;1338;48.176;11.792;2023-02-04T10:42:20;2.30;1.00
2657;DHT22;1338;48.176;11.792;2023-02-04T10:44:49;2.30;1.00
2657;DHT22;1338;48.176;11.792;2023-02-04T10:47:19;2.00;1.00
2657;DHT22;1338;48.176;11.792;2023-02-04T10:49:54;1.90;1.00
2657;DHT22;1338;48.176;11.792;2023-02-04T10:52:33;2.10;1.00
2657;DHT22;1338;48.176;11.792;2023-02-04T10:55:03;2.50;1.00
2657;DHT22;1338;48.176;11.792;2023-02-04T10:57:35;2.90;1.00
2657;DHT22;1338;48.176;11.792;2023-02-04T11:00:14;3.00;1.00
2657;DHT22;1338;48.176;11.792;2023-02-04T11:02:44;2.80;1.00
2657;DHT22;1338;48.176;11.792;2023-02-04T11:05:14;2.50;1.00
2657;DHT22;1338;48.176;11.792;2023-02-04T11:07:46;2.20;1.00
2657;DHT22;1338;48.176;11.792;2023-02-04T11:10:17;2.30;1.00
2657;DHT22;1338;48.176;11.792;2023-02-04T11:12:57;2.40;1.00
2657;DHT22;1338;48.176;11.792;2023-02-04T11:15:43;2.70;1.00
2657;DHT22;1338;48.176;11.792;2023-02-04T11:18:27;3.00;1.00
2657;DHT22;1338;48.176;11.792;2023-02-04T11:20:57;3.20;1.00
2657;DHT22;1338;48.176;11.792;2023-02-04T11:23:35;3.20;1.00
2657;DHT22;1338;48.176;11.792;2023-02-04T11:26:09;3.60;1.00
2657;DHT22;1338;48.176;11.792;2023-02-04T11:28:46;3.80;1.00
2657;DHT22;1338;48.176;11.792;2023-02-04T11:31:26;3.30;1.00
2657;DHT22;1338;48.176;11.792;2023-02-04T11:34:26;3.20;1.00
2657;DHT22;1338;48.176;11.792;2023-02-04T11:37:14;3.10;1.00
2657;DHT22;1338;48.176;11.792;2023-02-04T11:39:45;3.20;1.00
2657;DHT22;1338;48.176;11.792;2023-02-04T11:42:20;2.80;1.00
2657;DHT22;1338;48.176;11.792;2023-02-04T11:44:52;2.90;1.00
2657;DHT22;1338;48.176;11.792;2023-02-04T11:47:23;2.90;1.00
2657;DHT22;1338;48.176;11.792;2023-02-04T11:49:55;2.90;1.00
2657;DHT22;1338;48.176;11.792;2023-02-04T11:52:23;3.00;1.00
2657;DHT22;1338;48.176;11.792;2023-02-04T11:54:54;2.90;1.00
2657;DHT22;1338;48.176;11.792;2023-02-04T11:57:22;3.40;1.00
2657;DHT22;1338;48.176;11.792;2023-02-04T11:59:51;3.70;1.00
2657;DHT22;1338;48.176;11.792;2023-02-04T12:02:21;3.80;1.00
2657;DHT22;1338;48.176;11.792;2023-02-04T12:04:51;3.90;1.00
2657;DHT22;1338;48.176;11.792;2023-02-04T12:07:27;3.90;1.00
2657;DHT22;1338;48.176;11.792;2023-02-04T12:09:57;4.00;1.00
2657;DHT22;1338;48.176;11.792;2023-02-04T12:12:42;4.10;1.00
2657;DHT22;1338;48.176;11.792;2023-02-04T12:15:15;3.90;1.00
2657;DHT22;1338;48.176;11.792;2023-02-04T12:17:44;4.30;1.00
2657;DHT22;1338;48.176;11.792;2023-02-04T12:20:13;4.40;1.00
2657;DHT22;1338;48.176;11.792;2023-02-04T12:22:41;4.10;1.00
2657;DHT22;1338;48.176;11.792;2023-02-04T12:25:11;4.30;1.00
2657;DHT22;1338;48.176;11.792;2023-02-04T12:27:43;4.80;99.90
2657;DHT22;1338;48.176;11.792;2023-02-04T12:30:11;5.00;99.90
2657;DHT22;1338;48.176;11.792;2023-02-04T12:32:40;5.10;99.90
2657;DHT22;1338;48.176;11.792;2023-02-04T12:35:08;5.10;99.90
2657;DHT22;1338;48.176;11.792;2023-02-04T12:37:36;5.50;99.90
2657;DHT22;1338;48.176;11.792;2023-02-04T12:40:05;5.20;99.90
2657;DHT22;1338;48.176;11.792;2023-02-04T12:42:35;5.80;99.90
2657;DHT22;1338;48.176;11.792;2023-02-04T12:45:03;5.40;99.90
2657;DHT22;1338;48.176;11.792;2023-02-04T12:47:32;5.60;99.90
2657;DHT22;1338;48.176;11.792;2023-02-04T12:50:00;5.60;99.90
2657;DHT22;1338;48.176;11.792;2023-02-04T12:52:28;5.20;99.90
2657;DHT22;1338;48.176;11.792;2023-02-04T12:54:56;4.90;99.90
2657;DHT22;1338;48.176;11.792;2023-02-04T12:57:26;4.70;99.90
2657;DHT22;1338;48.176;11.792;2023-02-04T12:59:55;5.50;99.90
2657;DHT22;1338;48.176;11.792;2023-02-04T13:02:25;5.30;99.90
2657;DHT22;1338;48.176;11.792;2023-02-04T13:04:53;5.20;99.90
2657;DHT22;1338;48.176;11.792;2023-02-04T13:07:22;5.30;99.90
2657;DHT22;1338;48.176;11.792;2023-02-04T13:09:50;5.10;99.90
2657;DHT22;1338;48.176;11.792;2023-02-04T13:12:18;4.50;99.90
2657;DHT22;1338;48.176;11.792;2023-02-04T13:14:47;4.30;99.90
2657;DHT22;1338;48.176;11.792;2023-02-04T13:17:16;4.60;99.90
2657;DHT22;1338;48.176;11.792;2023-02-04T13:19:45;4.40;99.90
2657;DHT22;1338;48.176;11.792;2023-02-04T13:22:13;5.00;99.90
2657;DHT22;1338;48.176;11.792;2023-02-04T13:24:41;5.10;99.90
2657;DHT22;1338;48.176;11.792;2023-02-04T13:27:10;4.50;99.90
2657;DHT22;1338;48.176;11.792;2023-02-04T13:29:38;4.00;99.90
2657;DHT22;1338;48.176;11.792;2023-02-04T13:32:06;3.90;99.90
2657;DHT22;1338;48.176;11.792;2023-02-04T13:34:36;4.40;99.90
2657;DHT22;1338;48.176;11.792;2023-02-04T13:37:05;4.40;99.90
2657;DHT22;1338;48.176;11.792;2023-02-04T13:39:33;4.50;99.90
2657;DHT22;1338;48.176;11.792;2023-02-04T13:42:01;4.20;99.90
2657;DHT22;1338;48.176;11.792;2023-02-04T13:44:31;4.60;99.90
2657;DHT22;1338;48.176;11.792;2023-02-04T13:46:59;4.60;99.90
2657;DHT22;1338;48.176;11.792;2023-02-04T13:49:28;4.30;99.90
2657;DHT22;1338;48.176;11.792;2023-02-04T13:51:57;3.70;99.90
2657;DHT22;1338;48.176;11.792;2023-02-04T13:54:25;3.60;99.90
2657;DHT22;1338;48.176;11.792;2023-02-04T13:56:53;3.70;99.90
2657;DHT22;1338;48.176;11.792;2023-02-04T13:59:22;3.70;99.90
2657;DHT22;1338;48.176;11.792;2023-02-04T14:01:50;3.70;99.90
2657;DHT22;1338;48.176;11.792;2023-02-04T14:04:18;3.70;99.90
2657;DHT22;1338;48.176;11.792;2023-02-04T14:06:46;3.90;99.90
2657;DHT22;1338;48.176;11.792;2023-02-04T14:09:16;4.30;99.90
2657;DHT22;1338;48.176;11.792;2023-02-04T14:11:44;4.30;99.90
2657;DHT22;1338;48.176;11.792;2023-02-04T14:14:13;4.20;99.90
2657;DHT22;1338;48.176;11.792;2023-02-04T14:16:41;4.00;99.90
2657;DHT22;1338;48.176;11.792;2023-02-04T14:19:09;3.90;99.90
2657;DHT22;1338;48.176;11.792;2023-02-04T14:21:38;3.90;99.90
2657;DHT22;1338;48.176;11.792;2023-02-04T14:24:06;4.00;99.90
2657;DHT22;1338;48.176;11.792;2023-02-04T14:26:36;4.80;99.90
2657;DHT22;1338;48.176;11.792;2023-02-04T14:29:04;4.90;99.90
2657;DHT22;1338;48.176;11.792;2023-02-04T14:31:32;5.00;99.90
2657;DHT22;1338;48.176;11.792;2023-02-04T14:34:02;4.90;99.90
2657;DHT22;1338;48.176;11.792;2023-02-04T14:36:30;4.20;99.90
2657;DHT22;1338;48.176;11.792;2023-02-04T14:38:58;3.90;99.90
2657;DHT22;1338;48.176;11.792;2023-02-04T14:41:26;3.70;99.90
2657;DHT22;1338;48.176;11.792;2023-02-04T14:43:58;3.70;99.90
2657;DHT22;1338;48.176;11.792;2023-02-04T14:46:26;3.70;99.90
2657;DHT22;1338;48.176;11.792;2023-02-04T14:48:54;3.60;99.90
2657;DHT22;1338;48.176;11.792;2023-02-04T14:51:23;3.70;99.90
2657;DHT22;1338;48.176;11.792;2023-02-04T14:53:51;3.70;99.90
2657;DHT22;1338;48.176;11.792;2023-02-04T14:56:19;3.90;99.90
2657;DHT22;1338;48.176;11.792;2023-02-04T14:58:47;3.80;99.90
2657;DHT22;1338;48.176;11.792;2023-02-04T15:01:17;4.00;99.90
2657;DHT22;1338;48.176;11.792;2023-02-04T15:03:45;4.00;99.90
2657;DHT22;1338;48.176;11.792;2023-02-04T15:06:13;3.80;99.90
2657;DHT22;1338;48.176;11.792;2023-02-04T15:08:43;3.90;99.90
2657;DHT22;1338;48.176;11.792;2023-02-04T15:11:11;4.00;99.90
2657;DHT22;1338;48.176;11.792;2023-02-04T15:13:40;3.70;99.90
2657;DHT22;1338;48.176;11.792;2023-02-04T15:16:08;3.40;99.90
2657;DHT22;1338;48.176;11.792;2023-02-04T15:18:39;3.50;99.90
2657;DHT22;1338;48.176;11.792;2023-02-04T15:21:08;3.60;99.90
2657;DHT22;1338;48.176;11.792;2023-02-04T15:23:36;3.40;99.90
2657;DHT22;1338;48.176;11.792;2023-02-04T15:26:04;3.40;99.90
2657;DHT22;1338;48.176;11.792;2023-02-04T15:28:32;3.40;99.90
2657;DHT22;1338;48.176;11.792;2023-02-04T15:31:00;3.30;99.90
2657;DHT22;1338;48.176;11.792;2023-02-04T15:33:31;3.40;99.90
2657;DHT22;1338;48.176;11.792;2023-02-04T15:36:00;3.40;99.90
2657;DHT22;1338;48.176;11.792;2023-02-04T15:38:28;3.30;99.90
2657;DHT22;1338;48.176;11.792;2023-02-04T15:40:57;3.30;99.90
2657;DHT22;1338;48.176;11.792;2023-02-04T15:43:25;3.20;99.90
2657;DHT22;1338;48.176;11.792;2023-02-04T15:45:53;3.20;99.90
2657;DHT22;1338;48.176;11.792;2023-02-04T15:48:22;3.20;99.90
2657;DHT22;1338;48.176;11.792;2023-02-04T15:50:50;3.20;99.90
2657;DHT22;1338;48.176;11.792;2023-02-04T15:53:20;3.10;99.90
2657;DHT22;1338;48.176;11.792;2023-02-04T15:55:49;3.00;99.90
2657;DHT22;1338;48.176;11.792;2023-02-04T15:58:17;3.00;99.90
2657;DHT22;1338;48.176;11.792;2023-02-04T16:00:45;3.00;99.90
2657;DHT22;1338;48.176;11.792;2023-02-04T16:03:13;2.90;99.90
2657;DHT22;1338;48.176;11.792;2023-02-04T16:05:41;2.90;99.90
2657;DHT22;1338;48.176;11.792;2023-02-04T16:08:09;2.80;99.90
2657;DHT22;1338;48.176;11.792;2023-02-04T16:10:39;2.70;99.90
2657;DHT22;1338;48.176;11.792;2023-02-04T16:13:08;2.50;99.90
2657;DHT22;1338;48.176;11.792;2023-02-04T16:15:36;2.70;99.90
2657;DHT22;1338;48.176;11.792;2023-02-04T16:18:04;2.60;99.90
2657;DHT22;1338;48.176;11.792;2023-02-04T16:20:32;2.70;99.90
2657;DHT22;1338;48.176;11.792;2023-02-04T16:23:01;2.60;99.90
2657;DHT22;1338;48.176;11.792;2023-02-04T16:25:30;2.50;99.90